Terminal Aerodrome Forecast
Issued by NWS

Home | Current Version | Previous Version | Text Only | Print | Product List | Glossary On
Versions: 1 2 3 4 5 6 7 8 9 10 11 12
000
FTUS43 KIND 211100
TAFBMG
TAF
KBMG 211120Z 2112/2218 VRB02KT P6SM BKN200
     FM211500 22011KT P6SM SCT050 BKN150
     FM211900 23012KT P6SM OVC050
     FM212300 23007KT 6SM -SHRA VCTS OVC025CB
     FM220700 31009KT P6SM SCT025 BKN100=

USA.gov is the U.S. government's official web portal to all federal, state and local government web resources and services.